Time;durP1;ratioP1;P1;durP2;ratioP2;P2;SDS_P1;SDS_P2;PMS_P1;PMS_P2;Temp;Humidity;BMP_temperature;BMP_pressure;BME280_temperature;BME280_humidity;BME280_pressure;Samples;Min_cycle;Max_cycle;Signal;HPM_P1;HPM_P2
2023/06/27 00:02:12;;;;;;;2.22;1.90;;;;;;;23.60;38.51;95837.69;5007288;28;20206;-86
2023/06/27 00:04:39;;;;;;;4.32;1.80;;;;;;;23.55;38.72;95841.06;5008327;28;20206;-86
2023/06/27 00:07:09;;;;;;;4.03;2.00;;;;;;;23.50;38.52;95837.56;5008116;28;20584;-85
2023/06/27 00:09:36;;;;;;;3.75;2.05;;;;;;;23.51;38.60;95847.03;5008437;28;20716;-85
2023/06/27 00:12:02;;;;;;;4.57;2.17;;;;;;;23.51;38.89;95849.66;5008914;28;20230;-86
2023/06/27 00:14:29;;;;;;;3.83;2.17;;;;;;;23.45;38.57;95854.09;5008429;28;20203;-86
2023/06/27 00:16:57;;;;;;;2.10;1.70;;;;;;;23.36;38.95;95851.13;5008726;28;20249;-86
2023/06/27 00:19:23;;;;;;;3.42;1.77;;;;;;;23.38;38.88;95856.94;5006307;28;20604;-86
2023/06/27 00:21:50;;;;;;;3.13;1.67;;;;;;;23.33;38.90;95859.50;4998307;28;20884;-86
2023/06/27 00:24:17;;;;;;;4.25;1.92;;;;;;;23.29;39.23;95855.78;4988747;28;20219;-85
2023/06/27 00:26:44;;;;;;;6.22;1.98;;;;;;;23.27;38.82;95854.47;5004205;28;20202;-85
2023/06/27 00:29:10;;;;;;;3.50;2.00;;;;;;;23.27;38.93;95854.47;5027736;28;20674;-86
2023/06/27 00:31:37;;;;;;;4.05;1.98;;;;;;;23.23;38.88;95853.38;5028070;28;20210;-86
2023/06/27 00:34:03;;;;;;;3.25;1.75;;;;;;;23.23;38.76;95848.91;5020650;28;20210;-86
2023/06/27 00:36:29;;;;;;;3.15;1.70;;;;;;;23.25;39.04;95853.94;5007822;28;20214;-86
2023/06/27 00:38:56;;;;;;;2.88;1.77;;;;;;;23.27;38.81;95854.47;5008285;28;20206;-85
2023/06/27 00:41:24;;;;;;;3.33;1.80;;;;;;;23.28;38.98;95867.38;5008260;28;20234;-86
2023/06/27 00:43:50;;;;;;;1.95;1.75;;;;;;;23.26;39.00;95861.56;5008397;28;20199;-86
2023/06/27 00:46:26;;;;;;;3.78;1.90;;;;;;;23.25;38.96;95862.59;5011826;28;20205;-86
2023/06/27 00:48:52;;;;;;;4.47;1.80;;;;;;;23.25;38.99;95867.84;5011961;28;20834;-86
2023/06/27 00:51:19;;;;;;;3.83;1.92;;;;;;;23.27;39.57;95865.78;5010346;28;20226;-86
2023/06/27 00:53:47;;;;;;;6.03;1.90;;;;;;;23.21;39.99;95871.22;5011843;28;20206;-86
2023/06/27 00:56:13;;;;;;;2.88;1.95;;;;;;;23.24;39.72;95865.47;5011328;28;20209;-84
2023/06/27 00:58:41;;;;;;;4.57;1.95;;;;;;;23.22;39.21;95865.72;5011495;28;20198;-85
2023/06/27 01:01:09;;;;;;;5.35;1.83;;;;;;;23.21;39.66;95871.22;5011079;28;20227;-86
2023/06/27 01:03:36;;;;;;;3.42;1.80;;;;;;;23.08;39.56;95869.81;5011763;28;20328;-86
2023/06/27 01:06:08;;;;;;;4.05;1.85;;;;;;;23.01;39.89;95869.19;5010340;28;20195;-87
2023/06/27 01:08:42;;;;;;;4.00;1.90;;;;;;;22.97;39.98;95868.09;5011289;28;20207;-86
2023/06/27 01:11:15;;;;;;;3.90;1.70;;;;;;;22.99;40.29;95864.19;5010756;28;20218;-86
2023/06/27 01:13:49;;;;;;;1.90;1.70;;;;;;;22.98;40.31;95864.44;5011226;28;20199;-85
2023/06/27 01:16:17;;;;;;;2.78;1.98;;;;;;;22.94;40.45;95872.00;5011342;28;20238;-86
2023/06/27 01:18:45;;;;;;;3.33;1.90;;;;;;;22.93;40.40;95872.25;5011429;28;20697;-86
2023/06/27 01:21:12;;;;;;;3.30;2.03;;;;;;;22.88;40.55;95875.63;4998514;28;20230;-86
2023/06/27 01:23:52;;;;;;;6.28;1.90;;;;;;;22.89;40.48;95889.56;5006865;28;20202;-86
2023/06/27 01:26:18;;;;;;;2.92;2.17;;;;;;;22.91;40.47;95883.00;5016047;28;20198;-85
2023/06/27 01:28:47;;;;;;;5.47;1.52;;;;;;;22.92;40.64;95896.91;5030551;28;20190;-86
2023/06/27 01:31:22;;;;;;;2.35;1.85;;;;;;;22.85;40.79;95885.84;5030287;28;20249;-86
2023/06/27 01:33:55;;;;;;;1.90;1.60;;;;;;;22.78;40.94;95887.84;5030760;28;20583;-87
2023/06/27 01:36:29;;;;;;;4.10;1.85;;;;;;;22.75;41.17;95887.25;5030294;28;20206;-86
2023/06/27 01:39:03;;;;;;;3.50;1.70;;;;;;;22.74;41.09;95879.63;5020337;28;20202;-86
2023/06/27 01:41:32;;;;;;;2.83;1.63;;;;;;;22.61;41.38;95878.19;5010295;28;20248;-85
2023/06/27 01:44:02;;;;;;;2.78;2.10;;;;;;;22.61;41.29;95882.63;5010698;28;20202;-86
2023/06/27 01:46:31;;;;;;;2.50;1.70;;;;;;;22.62;41.31;95886.84;5010706;28;20238;-86
2023/06/27 01:48:59;;;;;;;3.13;1.70;;;;;;;22.65;41.41;95884.53;5010662;28;20706;-86
2023/06/27 01:51:26;;;;;;;2.92;1.95;;;;;;;22.70;41.40;95884.59;5010667;28;20203;-85
2023/06/27 01:53:52;;;;;;;4.32;1.70;;;;;;;22.74;41.28;95890.91;5010854;28;20688;-85
2023/06/27 01:56:23;;;;;;;2.85;1.92;;;;;;;22.72;41.33;95885.13;5008710;28;20698;-86
2023/06/27 01:58:50;;;;;;;4.63;2.00;;;;;;;22.69;41.43;95882.22;5010867;28;20213;-87
2023/06/27 02:01:17;;;;;;;2.58;1.70;;;;;;;22.61;41.61;95874.75;5010324;28;20715;-86
2023/06/27 02:03:43;;;;;;;3.03;1.70;;;;;;;22.56;41.61;95870.22;5010108;28;20206;-86
2023/06/27 02:06:10;;;;;;;3.25;1.70;;;;;;;22.55;41.61;95865.22;5010271;28;20206;-86
2023/06/27 02:08:36;;;;;;;3.80;1.88;;;;;;;22.56;41.73;95870.22;5010532;28;20203;-85
2023/06/27 02:11:03;;;;;;;4.68;1.85;;;;;;;22.60;41.71;95873.97;5008811;28;20223;-85
2023/06/27 02:13:37;;;;;;;3.80;1.80;;;;;;;22.58;41.86;95870.78;5010074;28;20782;-85
2023/06/27 02:16:04;;;;;;;3.63;1.98;;;;;;;22.56;41.85;95870.22;5010075;28;20211;-86
2023/06/27 02:18:31;;;;;;;4.43;1.90;;;;;;;22.43;42.60;95880.31;5006024;28;20203;-86
2023/06/27 02:20:57;;;;;;;5.68;1.80;;;;;;;22.47;42.19;95873.53;4999102;28;20234;-85
2023/06/27 02:23:25;;;;;;;2.35;1.50;;;;;;;22.49;42.27;95874.09;5010206;28;20206;-86
2023/06/27 02:25:51;;;;;;;2.85;1.77;;;;;;;22.56;42.11;95870.22;5010546;28;20199;-86
2023/06/27 02:28:18;;;;;;;3.67;1.73;;;;;;;22.54;42.06;95866.25;5013117;28;20207;-86
2023/06/27 02:30:48;;;;;;;3.75;1.88;;;;;;;22.56;42.05;95867.63;5009931;28;20226;-86
2023/06/27 02:33:14;;;;;;;8.82;2.05;;;;;;;22.50;42.01;95875.69;5010015;28;20199;-86
2023/06/27 02:35:41;;;;;;;4.90;2.08;;;;;;;22.42;42.66;95874.28;5009964;28;20211;-86
2023/06/27 02:38:07;;;;;;;2.55;1.80;;;;;;;22.37;42.39;95879.44;5010179;28;20206;-85
2023/06/27 02:40:34;;;;;;;3.42;1.80;;;;;;;22.35;42.64;95882.31;5009301;28;20598;-85
2023/06/27 02:43:00;;;;;;;3.17;2.00;;;;;;;22.39;42.53;95877.38;5008609;28;20206;-86
2023/06/27 02:45:26;;;;;;;3.15;1.88;;;;;;;22.28;42.67;95870.41;5009711;28;20219;-85
2023/06/27 02:47:54;;;;;;;2.92;1.85;;;;;;;22.29;42.67;95870.19;5009509;28;20454;-86
2023/06/27 02:50:21;;;;;;;3.72;2.00;;;;;;;22.30;42.75;95874.41;5009613;28;20223;-85
2023/06/27 02:52:48;;;;;;;2.35;1.73;;;;;;;22.31;42.67;95875.19;5009409;28;20684;-85
2023/06/27 02:55:14;;;;;;;3.47;1.98;;;;;;;22.29;42.87;95874.63;5009224;28;20824;-86
2023/06/27 02:57:41;;;;;;;3.60;1.90;;;;;;;22.20;42.93;95876.06;5009511;28;20205;-85
2023/06/27 03:00:11;;;;;;;5.57;1.88;;;;;;;22.17;42.95;95879.19;5008443;28;20222;-87
2023/06/27 03:02:37;;;;;;;1.92;1.75;;;;;;;22.16;43.24;95881.00;5009070;28;20261;-86
2023/06/27 03:05:09;;;;;;;3.00;1.60;;;;;;;22.11;43.16;95878.34;5009870;28;20202;-86
2023/06/27 03:07:35;;;;;;;2.13;1.85;;;;;;;22.15;43.27;95884.66;5008658;28;20199;-86
2023/06/27 03:10:02;;;;;;;2.55;1.70;;;;;;;22.19;43.41;95884.97;5009162;28;20222;-86
2023/06/27 03:12:28;;;;;;;4.68;1.90;;;;;;;22.14;43.00;95888.31;5009281;28;20230;-86
2023/06/27 03:14:55;;;;;;;3.63;1.80;;;;;;;22.12;42.96;95894.88;5008369;28;20214;-86
2023/06/27 03:17:21;;;;;;;4.43;1.90;;;;;;;22.13;43.02;95888.59;5008733;28;20626;-85
2023/06/27 03:19:48;;;;;;;5.85;1.92;;;;;;;22.21;42.83;95893.41;4994546;28;20219;-86
2023/06/27 03:22:16;;;;;;;2.55;1.88;;;;;;;22.27;42.89;95890.63;5008958;28;20888;-86
2023/06/27 03:24:42;;;;;;;5.22;2.00;;;;;;;22.27;42.90;95901.09;5009219;28;20209;-86
2023/06/27 03:27:09;;;;;;;3.40;1.90;;;;;;;22.31;43.18;95896.19;5020331;28;20208;-86
2023/06/27 03:29:35;;;;;;;2.85;1.70;;;;;;;22.16;44.22;95898.56;5029000;28;20233;-86
2023/06/27 03:32:05;;;;;;;2.55;1.90;;;;;;;22.12;43.33;95889.63;5016691;28;20202;-85
2023/06/27 03:34:31;;;;;;;5.90;2.20;;;;;;;22.02;43.62;95898.13;5009072;28;20206;-85
2023/06/27 03:36:58;;;;;;;5.68;1.92;;;;;;;22.07;43.56;95907.91;5009077;28;20237;-86
2023/06/27 03:39:26;;;;;;;4.13;1.73;;;;;;;22.12;43.71;95911.41;5008915;28;20234;-84
2023/06/27 03:41:52;;;;;;;2.67;1.90;;;;;;;22.07;43.46;95913.13;5009168;28;20225;-85
2023/06/27 03:44:18;;;;;;;6.35;2.70;;;;;;;22.01;43.57;95907.03;5008989;28;20680;-85
2023/06/27 03:46:45;;;;;;;2.90;1.70;;;;;;;21.91;43.70;95901.59;5008574;28;20210;-86
2023/06/27 03:49:11;;;;;;;3.60;2.15;;;;;;;21.94;43.74;95901.09;5007397;28;20209;-86
2023/06/27 03:51:40;;;;;;;3.92;1.90;;;;;;;22.01;43.55;95907.81;5008512;28;20202;-86
2023/06/27 03:54:07;;;;;;;2.88;1.95;;;;;;;22.10;43.34;95917.91;5008583;28;20217;-85
2023/06/27 03:56:35;;;;;;;4.00;1.67;;;;;;;21.94;43.61;95909.75;5008507;28;20202;-86
2023/06/27 03:59:02;;;;;;;3.33;1.80;;;;;;;21.98;43.51;95910.09;5008402;28;20205;-85
2023/06/27 04:01:28;;;;;;;5.47;1.80;;;;;;;21.96;43.75;95912.16;5008326;28;20619;-85
2023/06/27 04:03:54;;;;;;;2.92;1.90;;;;;;;21.95;43.55;95913.97;5007650;28;20210;-85
2023/06/27 04:06:21;;;;;;;3.25;2.13;;;;;;;21.91;43.84;95907.66;5009008;28;20211;-85
2023/06/27 04:08:48;;;;;;;6.47;2.15;;;;;;;21.90;43.88;95913.91;5008675;28;20207;-86
2023/06/27 04:11:14;;;;;;;3.90;1.85;;;;;;;21.84;44.08;95924.56;5008969;28;20598;-85
2023/06/27 04:13:42;;;;;;;2.78;1.92;;;;;;;21.79;44.22;95919.22;5009142;28;20795;-86
2023/06/27 04:16:08;;;;;;;3.60;1.73;;;;;;;21.79;43.85;95921.84;5008808;28;20210;-86
2023/06/27 04:18:35;;;;;;;4.38;1.80;;;;;;;21.75;44.05;95916.28;5004142;28;20199;-87
2023/06/27 04:21:01;;;;;;;5.07;1.88;;;;;;;21.79;43.76;95914.00;5005623;28;20227;-86
2023/06/27 04:23:27;;;;;;;4.28;2.03;;;;;;;21.74;44.38;95919.16;5012515;28;20206;-86
2023/06/27 04:26:03;;;;;;;5.05;2.10;;;;;;;21.81;43.89;95917.16;5013707;28;20209;-85
2023/06/27 04:28:31;;;;;;;3.33;1.70;;;;;;;21.84;43.97;95924.56;5031829;28;20202;-86
2023/06/27 04:31:02;;;;;;;4.80;1.75;;;;;;;21.84;43.96;95925.34;5031670;28;20249;-86
2023/06/27 04:33:28;;;;;;;2.65;1.90;;;;;;;21.76;44.15;95927.56;5014341;28;20656;-86
2023/06/27 04:36:00;;;;;;;2.25;1.60;;;;;;;21.83;43.79;95930.84;5011463;28;20194;-86
2023/06/27 04:38:27;;;;;;;4.15;1.70;;;;;;;21.86;43.83;95940.84;5012169;28;20207;-86
2023/06/27 04:40:54;;;;;;;4.53;1.83;;;;;;;21.84;43.88;95945.53;5012143;28;20242;-86
2023/06/27 04:43:21;;;;;;;2.47;1.80;;;;;;;21.77;44.23;95947.50;5012073;28;20227;-85
2023/06/27 04:45:47;;;;;;;2.38;1.75;;;;;;;21.81;43.79;95946.00;5012087;28;20207;-86
2023/06/27 04:48:18;;;;;;;4.07;1.83;;;;;;;21.80;43.98;95947.03;5013046;28;20203;-87
2023/06/27 04:50:45;;;;;;;3.50;1.80;;;;;;;21.86;43.90;95946.88;5012189;28;20234;-84
2023/06/27 04:53:11;;;;;;;5.85;2.13;;;;;;;21.85;43.94;95937.44;5011911;28;20199;-86
2023/06/27 04:55:37;;;;;;;3.20;1.80;;;;;;;21.83;44.55;95943.94;5012412;28;20556;-86
2023/06/27 04:58:04;;;;;;;5.55;1.88;;;;;;;21.81;44.38;95953.88;5012010;28;20206;-85
2023/06/27 05:00:30;;;;;;;6.50;2.00;;;;;;;21.83;44.19;95946.56;5012008;28;20730;-85
2023/06/27 05:02:57;;;;;;;3.67;2.10;;;;;;;21.84;44.57;95943.72;5012421;28;20226;-85
2023/06/27 05:05:31;;;;;;;3.20;1.95;;;;;;;21.84;44.38;95956.03;5012346;28;20234;-86
2023/06/27 05:07:58;;;;;;;4.75;2.05;;;;;;;21.71;44.72;95955.31;5011140;28;20683;-86
2023/06/27 05:10:24;;;;;;;3.83;1.90;;;;;;;21.76;44.48;95959.03;5012095;28;20235;-86
2023/06/27 05:12:51;;;;;;;3.35;1.85;;;;;;;21.70;44.51;95958.97;5011546;28;20850;-86
2023/06/27 05:15:17;;;;;;;2.97;1.90;;;;;;;21.77;44.64;95950.13;5012227;28;20210;-85
2023/06/27 05:17:52;;;;;;;3.75;2.00;;;;;;;21.80;44.69;95955.69;4993876;28;20623;-86
2023/06/27 05:20:19;;;;;;;4.10;1.95;;;;;;;21.71;44.91;95955.31;4996558;28;20215;-86
2023/06/27 05:22:47;;;;;;;5.30;2.00;;;;;;;21.69;45.05;95957.38;5012374;28;20280;-85
2023/06/27 05:25:13;;;;;;;4.97;2.10;;;;;;;21.57;45.28;95953.19;5010954;28;20720;-85
2023/06/27 05:27:40;;;;;;;4.05;2.10;;;;;;;21.65;45.17;95958.06;5020068;28;20213;-86
2023/06/27 05:30:07;;;;;;;3.42;1.80;;;;;;;21.59;44.84;95962.41;5011645;28;20230;-86
2023/06/27 05:32:34;;;;;;;2.67;1.80;;;;;;;21.57;45.36;95966.31;5011749;28;20575;-86
2023/06/27 05:35:00;;;;;;;4.25;1.83;;;;;;;21.55;45.04;95958.69;5011324;28;20199;-85
2023/06/27 05:37:26;;;;;;;4.05;1.60;;;;;;;21.52;44.76;95959.16;5011408;28;20203;-86
2023/06/27 05:39:54;;;;;;;2.63;1.85;;;;;;;21.54;45.41;95964.97;5010464;28;20617;-86
2023/06/27 05:42:21;;;;;;;8.95;1.90;;;;;;;21.51;45.60;95960.19;5010442;28;20227;-86
2023/06/27 05:44:47;;;;;;;3.58;2.00;;;;;;;21.62;45.47;95961.16;5011496;28;20207;-86
2023/06/27 05:47:14;;;;;;;3.17;1.60;;;;;;;21.62;45.44;95951.47;5011510;28;20214;-85
2023/06/27 05:49:40;;;;;;;3.92;1.70;;;;;;;21.67;45.60;95958.63;5011044;28;20249;-85
2023/06/27 05:52:07;;;;;;;2.95;2.10;;;;;;;21.64;45.56;95967.75;5010878;28;20668;-87
2023/06/27 05:54:33;;;;;;;2.58;1.90;;;;;;;21.71;45.47;95973.66;5010968;28;20274;-85
2023/06/27 05:57:01;;;;;;;7.43;2.95;;;;;;;21.75;45.05;95962.66;5010125;28;20586;-85
2023/06/27 05:59:30;;;;;;;4.03;1.80;;;;;;;21.77;45.12;95958.78;5011596;28;20230;-85
2023/06/27 06:01:57;;;;;;;5.43;2.13;;;;;;;21.73;44.93;95965.56;5011399;28;20229;-86
2023/06/27 06:04:23;;;;;;;8.10;2.10;;;;;;;21.81;45.21;95959.13;5011061;28;20680;-86
2023/06/27 06:06:50;;;;;;;3.75;2.10;;;;;;;21.82;46.37;95951.00;5011145;28;20222;-87
2023/06/27 06:09:16;;;;;;;6.13;2.10;;;;;;;21.80;45.77;95957.53;5010878;28;20681;-85
2023/06/27 06:11:44;;;;;;;4.18;1.90;;;;;;;21.79;45.31;95954.09;5010865;28;20203;-85
2023/06/27 06:14:11;;;;;;;3.58;2.10;;;;;;;21.79;45.13;95959.34;5009782;28;20207;-85
2023/06/27 06:16:38;;;;;;;4.00;1.75;;;;;;;21.76;45.09;95957.19;5001442;28;20214;-85
2023/06/27 06:19:04;;;;;;;6.05;2.10;;;;;;;21.77;45.29;95956.16;4990881;28;20207;-85
2023/06/27 06:21:31;;;;;;;5.25;2.08;;;;;;;21.74;45.56;95961.13;5004611;28;20622;-86
2023/06/27 06:24:02;;;;;;;3.63;2.00;;;;;;;21.78;44.92;95960.38;5008932;28;20281;-85
2023/06/27 06:26:28;;;;;;;2.50;1.75;;;;;;;21.79;44.89;95963.78;5002600;28;20260;-86
2023/06/27 06:28:54;;;;;;;4.00;1.85;;;;;;;21.73;44.85;95967.38;5023327;28;20261;-85
2023/06/27 06:31:24;;;;;;;6.35;2.63;;;;;;;21.63;44.94;95963.53;5010902;28;20231;-86
2023/06/27 06:33:51;;;;;;;2.60;2.22;;;;;;;21.70;44.64;95963.41;5010645;28;20298;-85
2023/06/27 06:36:18;;;;;;;8.23;3.55;;;;;;;21.63;45.42;95970.63;5010783;28;20199;-85
2023/06/27 06:38:45;;;;;;;6.28;4.53;;;;;;;21.62;45.63;95972.44;5011007;28;20233;-87
2023/06/27 06:41:11;;;;;;;4.13;2.83;;;;;;;21.60;45.66;95978.94;5010384;28;20237;-85
2023/06/27 06:43:38;;;;;;;7.97;5.68;;;;;;;21.63;45.82;95987.13;5010468;28;20218;-85
2023/06/27 06:46:04;;;;;;;4.45;3.15;;;;;;;21.61;46.30;95991.03;5009038;28;20199;-85
2023/06/27 06:48:32;;;;;;;6.57;3.88;;;;;;;21.64;46.44;95986.09;5009827;28;20257;-85
2023/06/27 06:50:59;;;;;;;2.85;2.25;;;;;;;21.70;45.99;95989.63;5010177;28;20650;-85
2023/06/27 06:53:25;;;;;;;4.78;2.50;;;;;;;21.71;45.88;95989.38;5010488;28;20198;-85
2023/06/27 06:55:52;;;;;;;5.78;2.67;;;;;;;21.68;46.07;95989.84;5010204;28;20198;-86
2023/06/27 06:58:18;;;;;;;2.00;1.80;;;;;;;21.75;46.23;95986.25;5009735;28;20209;-86
2023/06/27 07:00:44;;;;;;;6.25;2.10;;;;;;;21.76;45.34;95988.66;5008637;28;20222;-86
2023/06/27 07:03:11;;;;;;;3.33;1.88;;;;;;;21.72;45.75;95984.94;5009164;28;20229;-85
2023/06/27 07:05:40;;;;;;;3.63;1.83;;;;;;;21.60;45.95;95987.59;5010070;28;20203;-86
2023/06/27 07:08:07;;;;;;;2.80;1.77;;;;;;;21.64;46.00;95987.94;5010241;28;20213;-85
2023/06/27 07:10:34;;;;;;;3.70;2.05;;;;;;;21.65;46.14;95985.06;5009497;28;20743;-85
2023/06/27 07:13:01;;;;;;;5.10;1.95;;;;;;;21.76;45.67;95982.63;5010162;28;20190;-86
2023/06/27 07:15:28;;;;;;;5.25;2.05;;;;;;;21.87;45.43;95979.94;5009587;28;20226;-86
2023/06/27 07:17:55;;;;;;;4.55;1.90;;;;;;;22.01;44.96;95975.19;4999299;28;20214;-85
2023/06/27 07:20:22;;;;;;;4.75;1.77;;;;;;;21.91;45.53;95975.03;5005506;28;20631;-86
2023/06/27 07:22:50;;;;;;;7.00;1.90;;;;;;;21.88;45.93;95980.75;4995028;28;20242;-86
2023/06/27 07:25:16;;;;;;;3.85;2.05;;;;;;;21.88;45.53;95971.03;4989724;28;20226;-85
2023/06/27 07:27:43;;;;;;;4.65;1.73;;;;;;;21.92;45.34;95960.88;5021543;28;20195;-87
2023/06/27 07:30:10;;;;;;;2.20;1.70;;;;;;;22.05;44.20;95956.13;5029262;28;20268;-85
2023/06/27 07:32:37;;;;;;;3.72;2.00;;;;;;;22.22;44.02;95955.31;5028903;28;20198;-86
2023/06/27 07:35:05;;;;;;;3.72;2.30;;;;;;;22.35;43.53;95962.84;5009051;28;20199;-86
2023/06/27 07:37:31;;;;;;;2.88;2.15;;;;;;;22.38;43.63;95965.00;5009309;28;20207;-86
2023/06/27 07:39:59;;;;;;;2.33;1.80;;;;;;;22.26;44.05;95969.56;5008970;28;20253;-86
2023/06/27 07:42:26;;;;;;;4.63;2.10;;;;;;;22.35;44.27;95976.75;5009164;28;20241;-86
2023/06/27 07:44:52;;;;;;;4.28;2.10;;;;;;;22.28;44.25;95976.16;5009533;28;20664;-86
2023/06/27 07:47:19;;;;;;;3.75;1.80;;;;;;;22.42;44.04;95970.56;5009350;28;20207;-86
2023/06/27 07:49:45;;;;;;;4.80;2.33;;;;;;;22.52;44.32;95973.31;5008195;28;20700;-86
2023/06/27 07:52:11;;;;;;;4.22;2.00;;;;;;;22.71;44.48;95969.38;5008830;28;20207;-86
2023/06/27 07:54:38;;;;;;;3.80;2.40;;;;;;;22.89;43.49;95966.50;5011556;28;20210;-85
2023/06/27 07:57:09;;;;;;;2.92;1.80;;;;;;;22.99;43.40;95965.81;5012733;28;20691;-86
2023/06/27 07:59:35;;;;;;;7.32;2.50;;;;;;;22.99;42.78;95950.84;5012779;28;20227;-86
2023/06/27 08:02:02;;;;;;;3.58;2.20;;;;;;;23.14;42.44;95959.94;5012477;28;20198;-86
2023/06/27 08:04:28;;;;;;;4.53;2.75;;;;;;;23.24;41.64;95960.06;5012670;28;20230;-86
2023/06/27 08:06:55;;;;;;;3.88;2.40;;;;;;;23.19;41.29;95958.16;5011499;28;20668;-85
2023/06/27 08:09:21;;;;;;;4.78;2.13;;;;;;;23.06;40.78;95951.47;5012302;28;20214;-86
2023/06/27 08:11:48;;;;;;;3.05;1.80;;;;;;;23.16;41.12;95956.03;5012312;28;20203;-87
2023/06/27 08:14:15;;;;;;;5.13;2.13;;;;;;;23.05;41.80;95954.34;5002516;28;20206;-86
2023/06/27 08:16:42;;;;;;;5.00;1.90;;;;;;;23.18;41.07;95958.41;4997009;28;20590;-85
2023/06/27 08:19:08;;;;;;;3.03;1.73;;;;;;;23.34;40.34;95945.19;5012644;28;20575;-86
2023/06/27 08:21:35;;;;;;;4.38;1.90;;;;;;;23.56;39.93;95954.88;4998893;28;20214;-86
2023/06/27 08:24:01;;;;;;;2.67;1.90;;;;;;;23.70;39.68;95958.69;5012111;28;20603;-86
2023/06/27 08:26:29;;;;;;;2.97;1.60;;;;;;;23.77;39.13;95954.03;5017507;28;20202;-87
2023/06/27 08:28:56;;;;;;;3.30;1.85;;;;;;;23.86;38.50;95952.50;5031946;28;20201;-86
2023/06/27 08:31:24;;;;;;;3.00;1.88;;;;;;;23.73;38.23;95947.69;5031704;28;20641;-86
2023/06/27 08:33:50;;;;;;;4.63;2.15;;;;;;;23.65;39.31;95948.94;5031650;28;20198;-86
2023/06/27 08:36:16;;;;;;;5.68;1.92;;;;;;;23.64;39.80;95943.94;5031765;28;20202;-86
2023/06/27 08:38:43;;;;;;;3.38;1.85;;;;;;;23.74;39.42;95944.81;5018861;28;20617;-86
2023/06/27 08:41:10;;;;;;;5.18;1.90;;;;;;;23.84;38.80;95944.09;5011127;28;20234;-86
2023/06/27 08:43:37;;;;;;;5.30;2.00;;;;;;;23.77;38.17;95946.94;5012042;28;20226;-86
2023/06/27 08:46:06;;;;;;;3.90;1.95;;;;;;;23.66;38.29;95939.22;5011862;28;20203;-87
2023/06/27 08:48:36;;;;;;;3.22;1.80;;;;;;;23.90;38.21;95929.94;5012181;28;20234;-86
2023/06/27 08:51:04;;;;;;;5.60;2.03;;;;;;;23.99;38.75;95941.59;5011953;28;20226;-86
2023/06/27 08:53:32;;;;;;;4.10;1.77;;;;;;;24.13;39.37;95935.88;5010902;28;20206;-85
2023/06/27 08:56:03;;;;;;;3.80;2.05;;;;;;;24.14;38.35;95933.00;5011334;28;20564;-87
2023/06/27 08:58:39;;;;;;;2.33;2.00;;;;;;;24.27;38.64;95937.84;5011674;28;20736;-86
2023/06/27 09:01:06;;;;;;;2.55;1.83;;;;;;;24.41;38.92;95925.84;5011535;28;20740;-86
2023/06/27 09:03:35;;;;;;;2.42;1.80;;;;;;;24.66;38.12;95924.38;5012103;28;20223;-86
2023/06/27 09:06:03;;;;;;;5.80;1.95;;;;;;;24.81;37.23;95921.81;5010784;28;20245;-85
2023/06/27 09:08:30;;;;;;;5.28;2.10;;;;;;;25.00;36.65;95920.34;5011788;28;20215;-86
2023/06/27 09:10:57;;;;;;;4.80;1.73;;;;;;;25.06;36.43;95915.84;5010299;28;20227;-86
2023/06/27 09:13:24;;;;;;;2.85;1.90;;;;;;;25.20;36.55;95921.44;5011492;28;20203;-85
2023/06/27 09:15:50;;;;;;;5.40;1.80;;;;;;;25.39;36.51;95922.53;5010972;28;20223;-86
2023/06/27 09:18:16;;;;;;;3.63;1.95;;;;;;;25.26;35.32;95931.72;5011474;28;20234;-87
2023/06/27 09:20:45;;;;;;;3.65;1.98;;;;;;;25.32;35.31;95927.25;5002155;28;20433;-86
2023/06/27 09:23:12;;;;;;;6.40;1.80;;;;;;;25.43;35.54;95931.47;4991902;28;20845;-86
2023/06/27 09:25:39;;;;;;;2.10;1.90;;;;;;;25.56;35.27;95930.19;4992156;28;20199;-85
2023/06/27 09:28:16;;;;;;;2.80;1.83;;;;;;;25.64;34.42;95925.22;5011756;28;20195;-85
2023/06/27 09:30:52;;;;;;;4.63;2.42;;;;;;;25.80;33.86;95926.78;5011032;28;20254;-86
2023/06/27 09:33:19;;;;;;;3.10;2.20;;;;;;;25.78;33.76;95931.56;5010949;28;20238;-86
2023/06/27 09:35:47;;;;;;;3.17;1.80;;;;;;;25.67;34.41;95919.41;5010540;28;20230;-86
2023/06/27 09:38:16;;;;;;;2.88;1.70;;;;;;;25.76;34.43;95915.19;5011095;28;20213;-85
2023/06/27 09:40:42;;;;;;;2.28;2.08;;;;;;;25.93;34.74;95914.13;5010564;28;20668;-86
2023/06/27 09:43:11;;;;;;;6.65;2.03;;;;;;;26.07;34.75;95915.19;5009715;28;20258;-86
2023/06/27 09:45:37;;;;;;;3.47;1.80;;;;;;;26.16;32.90;95897.75;5010725;28;20687;-86
2023/06/27 09:48:08;;;;;;;3.70;1.88;;;;;;;26.25;33.59;95903.25;5010754;28;20286;-86
2023/06/27 09:50:35;;;;;;;2.47;1.92;;;;;;;25.98;32.71;95908.88;5010194;28;20723;-86
2023/06/27 09:53:03;;;;;;;4.68;1.75;;;;;;;26.30;32.91;95893.53;5010742;28;20822;-86
2023/06/27 09:55:30;;;;;;;5.63;1.85;;;;;;;26.48;31.96;95897.44;5010438;28;20203;-85
2023/06/27 09:57:57;;;;;;;4.53;1.77;;;;;;;26.31;32.76;95892.47;5010690;28;20199;-86
2023/06/27 10:00:26;;;;;;;3.40;1.80;;;;;;;26.45;33.14;95888.19;5009699;28;20230;-85
2023/06/27 10:02:53;;;;;;;4.57;2.00;;;;;;;26.29;33.44;95897.22;5010466;28;20199;-85
2023/06/27 10:05:20;;;;;;;5.70;2.00;;;;;;;26.08;34.42;95895.66;5010584;28;20595;-86
2023/06/27 10:07:50;;;;;;;3.75;2.10;;;;;;;25.98;34.53;95906.22;5010473;28;20591;-86
2023/06/27 10:10:20;;;;;;;5.28;1.70;;;;;;;25.58;34.55;95901.72;5010480;28;20281;-86
2023/06/27 10:12:47;;;;;;;2.45;1.90;;;;;;;25.54;34.71;95898.81;5009918;28;20607;-85
2023/06/27 10:15:15;;;;;;;6.28;2.10;;;;;;;25.93;34.71;95899.09;5000144;28;20767;-86
2023/06/27 10:17:41;;;;;;;2.85;2.17;;;;;;;25.78;34.97;95888.56;5008739;28;20217;-86
2023/06/27 10:20:11;;;;;;;3.80;2.15;;;;;;;25.53;34.49;95889.31;5009559;28;20226;-87
2023/06/27 10:22:40;;;;;;;4.43;2.33;;;;;;;25.27;35.59;95885.84;5010043;28;20293;-86
2023/06/27 10:25:08;;;;;;;5.40;2.20;;;;;;;25.05;36.05;95890.53;5009788;28;20223;-86
2023/06/27 10:27:38;;;;;;;6.85;2.38;;;;;;;24.93;36.34;95889.97;5024449;28;20552;-86
2023/06/27 10:30:12;;;;;;;3.03;1.90;;;;;;;24.94;36.60;95884.47;5029828;28;20807;-86
2023/06/27 10:32:43;;;;;;;3.42;1.90;;;;;;;25.15;36.80;95884.53;5008962;28;20241;-85
2023/06/27 10:35:12;;;;;;;3.83;2.55;;;;;;;25.30;36.56;95889.81;5010225;28;20207;-86
2023/06/27 10:37:42;;;;;;;4.35;2.55;;;;;;;25.34;36.49;95896.16;5009521;28;20202;-85
2023/06/27 10:40:09;;;;;;;6.97;6.20;;;;;;;25.27;36.47;95885.06;5009912;28;20262;-86
2023/06/27 10:42:38;;;;;;;7.78;6.18;;;;;;;25.23;36.34;95882.16;5009270;28;20206;-85
2023/06/27 10:45:08;;;;;;;5.10;2.47;;;;;;;25.32;35.58;95887.72;5009462;28;20704;-86
2023/06/27 10:47:38;;;;;;;4.72;2.00;;;;;;;25.37;35.70;95890.38;5008329;28;20628;-86
2023/06/27 10:50:10;;;;;;;2.58;1.95;;;;;;;25.33;35.80;95889.28;5009528;28;20244;-86
2023/06/27 10:52:38;;;;;;;5.05;2.20;;;;;;;25.23;36.54;95887.41;5009380;28;20454;-86
2023/06/27 10:55:23;;;;;;;2.70;2.10;;;;;;;25.06;36.14;95890.28;5009679;28;20732;-86
2023/06/27 10:58:02;;;;;;;4.53;1.98;;;;;;;25.05;35.92;95893.19;5009641;28;20211;-86
2023/06/27 11:00:31;;;;;;;4.07;2.33;;;;;;;25.00;36.79;95901.88;5009609;28;20280;-86
2023/06/27 11:03:01;;;;;;;3.25;2.40;;;;;;;24.97;36.73;95889.22;5008375;28;20979;-86
2023/06/27 11:05:40;;;;;;;2.35;1.92;;;;;;;24.94;36.82;95897.66;5009634;28;20222;-86
2023/06/27 11:08:10;;;;;;;5.15;2.17;;;;;;;24.97;36.79;95893.69;5009586;28;20587;-86
2023/06/27 11:10:38;;;;;;;4.05;2.30;;;;;;;25.21;35.80;95886.13;5009670;28;20242;-85
2023/06/27 11:13:15;;;;;;;3.00;2.00;;;;;;;25.54;36.33;95882.19;5009587;28;20234;-86
2023/06/27 11:15:43;;;;;;;4.68;2.17;;;;;;;25.91;35.52;95874.03;5009280;28;20210;-86
2023/06/27 11:18:10;;;;;;;5.43;2.20;;;;;;;26.05;35.18;95877.69;5009392;28;20226;-85
2023/06/27 11:20:37;;;;;;;2.58;2.10;;;;;;;26.23;35.73;95873.69;5007051;28;20661;-86
2023/06/27 11:23:03;;;;;;;2.30;2.03;;;;;;;26.33;35.69;95879.00;5008936;28;20210;-86
2023/06/27 11:25:36;;;;;;;4.82;2.20;;;;;;;26.11;34.59;95876.63;5008817;28;20222;-86
2023/06/27 11:28:02;;;;;;;4.80;2.00;;;;;;;26.02;35.16;95880.88;5015044;28;20245;-86
2023/06/27 11:30:33;;;;;;;2.72;1.98;;;;;;;26.07;35.47;95867.66;5008879;28;20245;-86
2023/06/27 11:32:59;;;;;;;4.38;2.08;;;;;;;26.06;34.64;95871.34;5009075;28;20875;-86
2023/06/27 11:35:27;;;;;;;4.90;2.20;;;;;;;26.00;34.91;95875.06;5007535;28;20603;-86
2023/06/27 11:37:55;;;;;;;3.05;1.90;;;;;;;25.90;34.49;95870.59;5008832;28;20202;-85